createdAt,value
2018-08-07T01:08:57.231Z,988.99
2018-08-07T01:09:57.506Z,988.96
2018-08-07T01:10:57.690Z,988.98
2018-08-07T01:11:57.950Z,989.01
2018-08-07T01:12:58.057Z,988.98
2018-08-07T01:13:58.217Z,989.00
2018-08-07T01:14:58.546Z,989.02
2018-08-07T01:15:58.579Z,988.98
2018-08-07T01:16:58.673Z,988.96
2018-08-07T01:17:58.950Z,988.93
2018-08-07T01:18:59.137Z,988.91
2018-08-07T01:19:59.316Z,988.93
2018-08-07T01:20:59.540Z,988.90
2018-08-07T01:21:59.659Z,988.91
2018-08-07T01:22:59.821Z,988.91
2018-08-07T01:24:00.054Z,988.90
2018-08-07T01:25:00.249Z,988.90
2018-08-07T01:26:00.489Z,988.86
2018-08-07T01:27:00.705Z,988.84
2018-08-07T01:28:00.824Z,988.86
2018-08-07T01:29:01.066Z,988.83
2018-08-07T01:30:01.246Z,988.86
2018-08-07T01:31:01.402Z,988.81
2018-08-07T01:32:01.473Z,988.83
2018-08-07T01:33:01.746Z,988.79
2018-08-07T01:34:02.127Z,988.87
2018-08-07T01:35:01.988Z,988.82
2018-08-07T01:36:02.270Z,988.82
2018-08-07T01:37:02.357Z,988.78
2018-08-07T01:38:02.495Z,988.81
2018-08-07T01:39:02.765Z,988.81
2018-08-07T01:40:02.834Z,988.77
2018-08-07T01:41:02.972Z,988.75
2018-08-07T01:42:03.167Z,988.80
2018-08-07T01:43:03.439Z,988.76
2018-08-07T01:44:03.613Z,988.74
2018-08-07T01:45:03.738Z,988.75
2018-08-07T01:46:04.008Z,988.72
2018-08-07T01:47:04.180Z,988.71
2018-08-07T01:48:04.279Z,988.67
2018-08-07T01:49:04.491Z,988.68
2018-08-07T01:50:04.607Z,988.66
2018-08-07T01:51:04.863Z,988.69
2018-08-07T01:52:04.932Z,988.67
2018-08-07T01:53:05.187Z,988.68
2018-08-07T01:54:05.361Z,988.66
2018-08-07T01:55:05.598Z,988.65
2018-08-07T01:56:05.708Z,988.67
2018-08-07T01:57:05.923Z,988.68
2018-08-07T01:58:06.155Z,988.67
2018-08-07T01:59:06.341Z,988.66
2018-08-07T02:00:06.449Z,988.71
2018-08-07T02:01:06.658Z,988.62
2018-08-07T02:02:06.801Z,988.70
2018-08-07T02:03:06.979Z,988.63
2018-08-07T02:04:07.145Z,988.69
2018-08-07T02:05:07.325Z,988.68
2018-08-07T02:06:07.501Z,988.67
2018-08-07T02:07:07.682Z,988.68
2018-08-07T02:08:07.869Z,988.66
2018-08-07T02:09:08.072Z,988.66
2018-08-07T02:10:08.358Z,988.69
2018-08-07T02:11:08.518Z,988.68
2018-08-07T02:12:08.699Z,988.68
2018-08-07T02:13:08.959Z,988.65
2018-08-07T02:14:09.108Z,988.62
2018-08-07T02:15:09.292Z,988.66
2018-08-07T02:16:09.492Z,988.65
2018-08-07T02:17:09.633Z,988.63
2018-08-07T02:18:09.893Z,988.63
2018-08-07T02:19:10.013Z,988.63
2018-08-07T02:20:10.214Z,988.63
2018-08-07T02:21:10.406Z,988.64
2018-08-07T02:22:10.550Z,988.64
2018-08-07T02:23:10.803Z,988.61
2018-08-07T02:24:11.045Z,988.61
2018-08-07T02:25:11.264Z,988.58
2018-08-07T02:26:11.403Z,988.60
2018-08-07T02:27:11.553Z,988.62
2018-08-07T02:28:11.810Z,988.57
2018-08-07T02:29:11.960Z,988.61
2018-08-07T02:30:12.197Z,988.59
2018-08-07T02:31:12.369Z,988.59
2018-08-07T02:32:12.424Z,988.58
2018-08-07T02:33:12.613Z,988.58
2018-08-07T02:34:12.942Z,988.57
2018-08-07T02:35:13.025Z,988.53
2018-08-07T02:36:13.244Z,988.54
2018-08-07T02:37:13.307Z,988.53
2018-08-07T02:38:13.385Z,988.51
2018-08-07T02:39:13.617Z,988.55
2018-08-07T02:40:13.724Z,988.52
2018-08-07T02:41:13.945Z,988.51
2018-08-07T02:42:14.177Z,988.48
2018-08-07T02:43:14.348Z,988.47
2018-08-07T02:44:14.580Z,988.46
2018-08-07T02:45:14.700Z,988.46
2018-08-07T02:46:14.808Z,988.47
2018-08-07T02:47:14.970Z,988.45
2018-08-07T02:48:15.225Z,988.47
2018-08-07T02:49:15.343Z,988.42
2018-08-07T02:50:15.483Z,988.45
2018-08-07T02:51:15.767Z,988.42
2018-08-07T02:52:15.934Z,988.43
2018-08-07T02:53:16.155Z,988.44
2018-08-07T02:54:16.374Z,988.43
2018-08-07T02:55:16.396Z,988.46
2018-08-07T02:56:16.679Z,988.45
2018-08-07T02:57:16.736Z,988.44
2018-08-07T02:58:16.993Z,988.47
2018-08-07T02:59:17.130Z,988.52
2018-08-07T03:00:17.418Z,988.46
2018-08-07T03:01:17.611Z,988.45
2018-08-07T03:02:17.965Z,988.45
2018-08-07T03:03:17.973Z,988.46
2018-08-07T03:04:18.188Z,988.47
2018-08-07T03:05:18.348Z,988.48
2018-08-07T03:06:18.495Z,988.48
2018-08-07T03:07:18.619Z,988.50
2018-08-07T03:08:18.857Z,988.51
2018-08-07T03:09:19.242Z,988.48
2018-08-07T03:10:19.224Z,988.52
2018-08-07T03:11:19.429Z,988.52
2018-08-07T03:12:19.700Z,988.48
2018-08-07T03:13:19.828Z,988.51
2018-08-07T03:14:19.969Z,988.47
2018-08-07T03:15:20.234Z,988.53
2018-08-07T03:16:20.600Z,988.51
2018-08-07T03:17:20.658Z,988.52
2018-08-07T03:18:20.797Z,988.53
2018-08-07T03:19:21.049Z,988.54
2018-08-07T03:20:21.259Z,988.53
2018-08-07T03:21:21.362Z,988.55
2018-08-07T03:22:21.615Z,988.54
2018-08-07T03:23:21.745Z,988.55
2018-08-07T03:24:21.904Z,988.53
2018-08-07T03:25:22.047Z,988.54
2018-08-07T03:26:22.243Z,988.55
2018-08-07T03:27:22.528Z,988.55
2018-08-07T03:28:22.574Z,988.56
2018-08-07T03:29:22.767Z,988.57
2018-08-07T03:30:22.973Z,988.57
2018-08-07T03:31:23.197Z,988.60
2018-08-07T03:32:23.324Z,988.63
2018-08-07T03:33:23.572Z,988.63
2018-08-07T03:34:23.812Z,988.60
2018-08-07T03:35:24.002Z,988.60
2018-08-07T03:36:24.205Z,988.57
2018-08-07T03:37:24.460Z,988.60
2018-08-07T03:38:24.509Z,988.61
2018-08-07T03:39:24.746Z,988.63
2018-08-07T03:40:24.950Z,988.63
2018-08-07T03:41:25.285Z,988.65
2018-08-07T03:42:25.281Z,988.61
2018-08-07T03:43:25.505Z,988.64
2018-08-07T03:44:25.730Z,988.65
2018-08-07T03:45:25.921Z,988.62
2018-08-07T03:46:26.101Z,988.65
2018-08-07T03:47:26.209Z,988.65
2018-08-07T03:48:26.427Z,988.61
2018-08-07T03:49:26.596Z,988.65
2018-08-07T03:50:26.870Z,988.68
2018-08-07T03:51:27.043Z,988.66
2018-08-07T03:52:27.224Z,988.66
2018-08-07T03:53:27.380Z,988.67
2018-08-07T03:54:27.548Z,988.70
2018-08-07T03:55:27.866Z,988.70
2018-08-07T03:56:27.909Z,988.71
2018-08-07T03:57:28.067Z,988.74
2018-08-07T03:58:28.288Z,988.75
2018-08-07T03:59:28.517Z,988.75
2018-08-07T04:00:28.665Z,988.75
2018-08-07T04:01:28.904Z,988.74
2018-08-07T04:02:28.963Z,988.76
2018-08-07T04:03:29.375Z,988.75
2018-08-07T04:04:29.404Z,988.78
2018-08-07T04:05:29.579Z,988.76
2018-08-07T04:06:29.725Z,988.74
2018-08-07T04:07:29.988Z,988.76
2018-08-07T04:08:30.208Z,988.81
2018-08-07T04:09:30.354Z,988.78
2018-08-07T04:10:30.633Z,988.78
2018-08-07T04:11:30.711Z,988.79
2018-08-07T04:12:30.901Z,988.76
2018-08-07T04:13:31.118Z,988.74
2018-08-07T04:14:31.838Z,988.74
2018-08-07T04:15:32.837Z,988.76
2018-08-07T04:16:31.577Z,988.74
2018-08-07T04:17:31.781Z,988.72
2018-08-07T04:18:32.037Z,988.77
2018-08-07T04:19:32.172Z,988.79
2018-08-07T04:20:32.430Z,988.78
2018-08-07T04:21:32.554Z,988.77
2018-08-07T04:22:32.800Z,988.78
2018-08-07T04:23:32.848Z,988.80
2018-08-07T04:24:33.084Z,988.77
2018-08-07T04:25:33.213Z,988.77
2018-08-07T04:26:33.352Z,988.79
2018-08-07T04:27:33.523Z,988.77
2018-08-07T04:28:33.705Z,988.76
2018-08-07T04:29:33.978Z,988.77
2018-08-07T04:30:34.170Z,988.81
2018-08-07T04:31:34.288Z,988.79
2018-08-07T04:32:34.616Z,988.79
2018-08-07T04:33:34.748Z,988.80
2018-08-07T04:34:34.984Z,988.80
2018-08-07T04:35:35.093Z,988.81
2018-08-07T04:36:35.387Z,988.83
2018-08-07T04:37:35.516Z,988.81
2018-08-07T04:38:35.723Z,988.80
2018-08-07T04:39:35.896Z,988.85
2018-08-07T04:40:36.112Z,988.84
2018-08-07T04:41:36.237Z,988.86
2018-08-07T04:42:36.502Z,988.86
2018-08-07T04:43:36.673Z,988.89
2018-08-07T04:44:36.951Z,988.90
2018-08-07T04:45:37.040Z,988.90
2018-08-07T04:46:37.186Z,988.88
2018-08-07T04:47:37.447Z,988.91
2018-08-07T04:48:37.656Z,989.01
2018-08-07T04:49:37.776Z,989.05
2018-08-07T04:50:37.967Z,988.99
2018-08-07T04:51:38.209Z,988.98
2018-08-07T04:52:38.393Z,989.11
2018-08-07T04:53:38.574Z,989.11
2018-08-07T04:54:38.853Z,989.09
2018-08-07T04:55:38.932Z,988.97
2018-08-07T04:56:39.188Z,988.99
2018-08-07T04:57:39.277Z,988.99
2018-08-07T04:58:39.421Z,988.94
2018-08-07T04:59:39.685Z,988.94
2018-08-07T05:00:39.883Z,988.95
2018-08-07T05:01:40.054Z,988.94
2018-08-07T05:02:40.236Z,988.95
2018-08-07T05:03:40.491Z,989.09
2018-08-07T05:04:40.720Z,989.39
2018-08-07T05:05:41.196Z,989.41
2018-08-07T05:06:41.183Z,989.42
2018-08-07T05:07:41.449Z,989.44
2018-08-07T05:08:41.630Z,989.31
2018-08-07T05:09:41.954Z,989.08
2018-08-07T05:10:42.177Z,989.43
2018-08-07T05:11:42.290Z,989.01
2018-08-07T05:12:42.572Z,989.08
2018-08-07T05:13:42.681Z,989.05
2018-08-07T05:14:42.914Z,989.16
2018-08-07T05:15:43.136Z,989.06
2018-08-07T05:16:43.246Z,989.03
2018-08-07T05:17:43.505Z,989.03
2018-08-07T05:18:43.642Z,989.05
2018-08-07T05:19:43.917Z,989.49
2018-08-07T05:20:43.971Z,989.24
2018-08-07T05:21:44.240Z,989.55
2018-08-07T05:22:44.414Z,989.58
2018-08-07T05:23:44.592Z,989.32
2018-08-07T05:24:44.848Z,989.80
2018-08-07T05:25:45.017Z,989.20
2018-08-07T05:26:45.189Z,989.39
2018-08-07T05:27:45.369Z,989.32
2018-08-07T05:28:45.657Z,989.87
2018-08-07T05:29:45.821Z,989.74
2018-08-07T05:30:46.356Z,989.70
2018-08-07T05:31:46.153Z,989.76
2018-08-07T05:32:46.410Z,989.84
2018-08-07T05:33:46.627Z,989.21
2018-08-07T05:34:46.836Z,989.78
2018-08-07T05:35:47.173Z,989.32
2018-08-07T05:36:47.249Z,989.63
2018-08-07T05:37:47.494Z,989.68
2018-08-07T05:38:47.749Z,989.32
2018-08-07T05:39:48.078Z,989.68
2018-08-07T05:40:48.069Z,989.77
2018-08-07T05:41:48.539Z,989.76
2018-08-07T05:42:48.617Z,989.86
2018-08-07T05:43:48.626Z,989.90
2018-08-07T05:44:48.799Z,989.84
2018-08-07T05:45:49.015Z,989.78
2018-08-07T05:46:49.256Z,989.73
2018-08-07T05:47:49.460Z,989.75
2018-08-07T05:48:49.608Z,989.77
2018-08-07T05:49:49.800Z,989.74
2018-08-07T05:50:50.243Z,989.69
2018-08-07T05:51:50.278Z,989.51
2018-08-07T05:52:50.347Z,989.65
2018-08-07T05:53:50.658Z,989.72
2018-08-07T05:54:50.776Z,989.69
2018-08-07T05:55:51.006Z,989.67
2018-08-07T05:56:51.119Z,989.65
2018-08-07T05:57:51.371Z,989.65
2018-08-07T05:58:51.535Z,989.60
2018-08-07T05:59:51.707Z,989.65
2018-08-07T06:00:51.940Z,989.62
2018-08-07T06:01:52.064Z,989.61
2018-08-07T06:02:52.489Z,989.57
2018-08-07T06:03:52.427Z,989.57
2018-08-07T06:04:52.661Z,989.41
2018-08-07T06:05:52.889Z,989.30
2018-08-07T06:06:53.069Z,989.25
2018-08-07T06:07:53.366Z,989.35
2018-08-07T06:08:53.403Z,989.23
2018-08-07T06:09:53.814Z,989.43
2018-08-07T06:10:53.775Z,989.46
2018-08-07T06:11:53.869Z,989.46
2018-08-07T06:12:54.123Z,989.51
2018-08-07T06:13:54.281Z,989.51
2018-08-07T06:14:54.509Z,989.57
2018-08-07T06:15:54.602Z,989.60
2018-08-07T06:16:54.887Z,989.63
2018-08-07T06:17:55.084Z,989.63
2018-08-07T06:18:55.396Z,989.62
2018-08-07T06:19:55.440Z,989.64
2018-08-07T06:20:55.743Z,989.64
2018-08-07T06:21:55.903Z,989.69
2018-08-07T06:22:56.151Z,989.64
2018-08-07T06:23:56.478Z,989.64
2018-08-07T06:24:56.387Z,989.60
2018-08-07T06:25:56.667Z,989.63
2018-08-07T06:26:56.880Z,989.58
2018-08-07T06:27:56.980Z,989.57
2018-08-07T06:28:57.229Z,989.56
2018-08-07T06:29:57.435Z,989.59
2018-08-07T06:30:57.631Z,989.57
2018-08-07T06:31:57.830Z,989.61
2018-08-07T06:32:58.020Z,989.61
2018-08-07T06:33:58.197Z,989.59
2018-08-07T06:34:58.477Z,989.54
2018-08-07T06:35:58.786Z,989.62
2018-08-07T06:36:58.874Z,989.61
2018-08-07T06:37:59.004Z,989.66
2018-08-07T06:38:59.285Z,989.65
2018-08-07T06:39:59.424Z,989.63
2018-08-07T06:40:59.743Z,989.65
2018-08-07T06:41:59.921Z,989.62
2018-08-07T06:43:00.182Z,989.61
2018-08-07T06:44:00.239Z,989.61
2018-08-07T06:45:00.519Z,989.65
2018-08-07T06:46:00.573Z,989.63
2018-08-07T06:47:00.874Z,989.66
2018-08-07T06:48:01.070Z,989.64
2018-08-07T06:49:01.312Z,989.69
2018-08-07T06:50:01.514Z,989.67
2018-08-07T06:51:01.761Z,989.62
2018-08-07T06:52:01.998Z,989.64
2018-08-07T06:53:02.136Z,989.64
2018-08-07T06:54:02.354Z,989.62
2018-08-07T06:55:02.522Z,989.59
2018-08-07T06:56:02.795Z,989.61
2018-08-07T06:57:03.055Z,989.60
2018-08-07T06:58:03.191Z,989.55
2018-08-07T06:59:03.345Z,989.56
2018-08-07T07:00:03.502Z,989.55
2018-08-07T07:01:03.599Z,989.58
2018-08-07T07:02:03.833Z,989.58
2018-08-07T07:03:04.015Z,989.56
2018-08-07T07:04:04.231Z,989.56
2018-08-07T07:05:04.388Z,989.51
2018-08-07T07:06:04.603Z,989.53
2018-08-07T07:07:04.725Z,989.53
2018-08-07T07:08:04.929Z,989.52
2018-08-07T07:09:05.158Z,989.49
2018-08-07T07:10:05.580Z,989.52
2018-08-07T07:11:05.605Z,989.51
2018-08-07T07:12:05.784Z,989.48
2018-08-07T07:13:06.078Z,989.51
2018-08-07T07:14:06.313Z,989.51
2018-08-07T07:15:06.475Z,989.49
2018-08-07T07:16:06.712Z,989.49
2018-08-07T07:17:06.787Z,989.50
2018-08-07T07:18:07.007Z,989.49
2018-08-07T07:19:07.158Z,989.49
2018-08-07T07:20:07.364Z,989.45
2018-08-07T07:21:08.417Z,989.49
2018-08-07T07:22:07.800Z,989.44
2018-08-07T07:23:08.907Z,989.43
2018-08-07T07:24:08.324Z,989.43
2018-08-07T07:25:08.532Z,989.40
2018-08-07T07:26:08.767Z,989.41
2018-08-07T07:27:08.873Z,989.41
2018-08-07T07:28:09.082Z,989.39
2018-08-07T07:29:09.284Z,989.38
2018-08-07T07:30:09.503Z,989.39
2018-08-07T07:31:09.784Z,989.37
2018-08-07T07:32:09.949Z,989.38
2018-08-07T07:33:10.162Z,989.37
2018-08-07T07:34:10.456Z,989.35
2018-08-07T07:35:10.621Z,989.34
2018-08-07T07:36:10.829Z,989.35
2018-08-07T07:37:11.070Z,989.34
2018-08-07T07:38:11.299Z,989.35
2018-08-07T07:39:11.524Z,989.31
2018-08-07T07:40:11.772Z,989.31
2018-08-07T07:41:11.904Z,989.33
2018-08-07T07:42:12.067Z,989.29
2018-08-07T07:43:12.257Z,989.25
2018-08-07T07:44:12.453Z,989.26
2018-08-07T07:45:12.911Z,989.25
2018-08-07T07:46:12.851Z,989.26
2018-08-07T07:47:13.019Z,989.24
2018-08-07T07:48:13.243Z,989.27
2018-08-07T07:49:13.498Z,989.27
2018-08-07T07:50:13.606Z,989.21
2018-08-07T07:51:13.742Z,989.20
2018-08-07T07:52:13.943Z,989.24
2018-08-07T07:53:14.130Z,989.21
2018-08-07T07:54:14.356Z,989.22
2018-08-07T07:55:14.601Z,989.19
2018-08-07T07:56:14.726Z,989.19
2018-08-07T07:57:14.947Z,989.19
2018-08-07T07:58:15.206Z,989.16
2018-08-07T07:59:15.380Z,989.16
2018-08-07T08:00:15.629Z,989.16
2018-08-07T08:01:15.830Z,989.12
2018-08-07T08:02:15.972Z,989.14
2018-08-07T08:03:16.228Z,989.13
2018-08-07T08:04:16.403Z,989.15
2018-08-07T08:05:16.493Z,989.17
2018-08-07T08:06:16.735Z,989.20
2018-08-07T08:07:16.914Z,989.14
2018-08-07T08:08:17.033Z,989.13
2018-08-07T08:09:17.278Z,989.11
2018-08-07T08:10:17.467Z,989.14
2018-08-07T08:11:17.842Z,989.14
2018-08-07T08:12:17.829Z,989.14
2018-08-07T08:14:18.192Z,989.09
2018-08-07T08:15:18.438Z,989.09
2018-08-07T08:16:18.674Z,989.08
2018-08-07T08:17:18.859Z,989.08
2018-08-07T08:18:19.038Z,989.06
2018-08-07T08:19:19.240Z,989.07
2018-08-07T08:20:19.589Z,989.05
2018-08-07T08:21:19.679Z,989.04
2018-08-07T08:22:19.928Z,989.05
2018-08-07T08:23:20.092Z,989.06
2018-08-07T08:24:20.454Z,989.03
2018-08-07T08:25:20.477Z,989.02
2018-08-07T08:26:20.704Z,989.01
2018-08-07T08:27:20.860Z,989.04
2018-08-07T08:28:21.099Z,989.01
2018-08-07T08:29:21.631Z,989.03
2018-08-07T08:30:21.564Z,988.99
2018-08-07T08:31:21.722Z,988.99
2018-08-07T08:32:21.936Z,988.94
2018-08-07T08:33:22.104Z,988.95
2018-08-07T08:34:22.395Z,988.95
2018-08-07T08:35:22.562Z,988.90
2018-08-07T08:36:22.752Z,988.93
2018-08-07T08:37:22.938Z,988.91
2018-08-07T08:38:23.180Z,988.91
2018-08-07T08:39:23.538Z,988.88
2018-08-07T08:40:23.648Z,988.92
2018-08-07T08:41:23.736Z,988.89
2018-08-07T08:42:23.923Z,988.85
2018-08-07T08:43:24.139Z,988.84
2018-08-07T08:44:24.268Z,988.87
2018-08-07T08:45:24.616Z,988.82
2018-08-07T08:46:24.896Z,988.80
2018-08-07T08:47:24.904Z,988.78
2018-08-07T08:48:25.182Z,988.80
2018-08-07T08:49:25.340Z,988.79
2018-08-07T08:50:25.624Z,988.79
2018-08-07T08:51:25.851Z,988.79
2018-08-07T08:52:26.119Z,988.77
2018-08-07T08:53:26.201Z,988.72
2018-08-07T08:54:26.395Z,988.71
2018-08-07T08:55:26.533Z,988.70
2018-08-07T08:56:26.622Z,988.72
2018-08-07T08:57:26.791Z,988.72
2018-08-07T08:58:26.983Z,988.69
2018-08-07T08:59:27.174Z,988.68
2018-08-07T09:00:27.373Z,988.70
2018-08-07T09:01:27.590Z,988.65
2018-08-07T09:02:27.844Z,988.64
2018-08-07T09:03:28.057Z,988.57
2018-08-07T09:04:28.552Z,988.60
2018-08-07T09:05:28.407Z,988.60
2018-08-07T09:06:28.592Z,988.47
2018-08-07T09:07:28.812Z,988.58
2018-08-07T09:08:29.055Z,988.60
2018-08-07T09:09:29.375Z,988.55
2018-08-07T09:10:29.630Z,988.55
2018-08-07T09:11:29.740Z,988.53
2018-08-07T09:12:57.529Z,988.49
2018-08-07T09:13:30.035Z,988.49
2018-08-07T09:14:30.224Z,988.45
2018-08-07T09:15:30.621Z,988.44
2018-08-07T09:16:30.599Z,988.43
2018-08-07T09:17:30.803Z,988.41
2018-08-07T09:18:31.112Z,988.38
2018-08-07T09:19:31.198Z,988.38
2018-08-07T09:20:31.326Z,988.34
2018-08-07T09:21:31.518Z,988.27
2018-08-07T09:22:31.724Z,988.29
2018-08-07T09:23:31.921Z,988.28
2018-08-07T09:24:32.125Z,988.31
2018-08-07T09:26:32.527Z,988.26
2018-08-07T09:27:32.724Z,988.29
2018-08-07T09:28:32.923Z,988.26
2018-08-07T09:29:33.126Z,988.25
2018-08-07T09:30:33.314Z,988.22
2018-08-07T09:31:33.509Z,988.19
2018-08-07T09:32:33.708Z,988.14
2018-08-07T09:33:33.960Z,988.14
2018-08-07T09:34:34.094Z,988.12
2018-08-07T09:35:34.292Z,988.18
2018-08-07T09:36:34.952Z,988.11
2018-08-07T09:37:34.737Z,988.11
2018-08-07T09:38:34.891Z,988.09
2018-08-07T09:39:35.176Z,988.02
2018-08-07T09:40:35.263Z,988.03
2018-08-07T09:41:35.455Z,988.03
2018-08-07T09:42:35.633Z,988.00
2018-08-07T09:43:35.812Z,988.02
2018-08-07T09:44:36.039Z,988.02
2018-08-07T09:45:36.199Z,988.03
2018-08-07T09:46:36.409Z,987.99
2018-08-07T09:47:36.584Z,988.02
2018-08-07T09:48:36.766Z,987.98
2018-08-07T09:49:36.975Z,988.00
2018-08-07T09:50:37.162Z,987.95
2018-08-07T09:51:37.321Z,987.96
2018-08-07T09:52:37.499Z,987.96
2018-08-07T09:53:37.707Z,987.96
2018-08-07T09:54:37.898Z,987.93
2018-08-07T09:55:38.078Z,987.92
2018-08-07T09:56:38.274Z,987.90
2018-08-07T09:57:38.462Z,987.88
2018-08-07T09:58:38.721Z,987.87
2018-08-07T09:59:38.860Z,987.88
2018-08-07T10:00:39.054Z,987.85
2018-08-07T10:01:39.242Z,987.87
2018-08-07T10:02:39.433Z,987.83
2018-08-07T10:03:39.634Z,987.83
2018-08-07T10:04:39.845Z,987.87
2018-08-07T10:05:39.998Z,987.84
2018-08-07T10:06:40.200Z,987.82
2018-08-07T10:07:40.399Z,987.80
2018-08-07T10:08:40.577Z,987.80
2018-08-07T10:09:40.763Z,987.82
2018-08-07T10:10:40.942Z,987.76
2018-08-07T10:11:41.160Z,987.75
2018-08-07T10:12:41.367Z,987.72
2018-08-07T10:13:41.553Z,987.72
2018-08-07T10:14:41.737Z,987.70
2018-08-07T10:15:42.198Z,987.69
2018-08-07T10:16:42.120Z,987.68
2018-08-07T10:17:42.371Z,987.64
2018-08-07T10:18:42.507Z,987.62
2018-08-07T10:19:42.692Z,987.60
2018-08-07T10:20:42.886Z,987.61
2018-08-07T10:21:43.081Z,987.61
2018-08-07T10:22:43.266Z,987.65
2018-08-07T10:23:43.482Z,987.57
2018-08-07T10:24:43.642Z,987.58
2018-08-07T10:25:43.844Z,987.57
2018-08-07T10:26:44.025Z,987.55
2018-08-07T10:27:44.233Z,987.55
2018-08-07T10:28:44.437Z,987.57
2018-08-07T10:29:44.619Z,987.54
2018-08-07T10:30:44.818Z,987.57
2018-08-07T10:31:45.010Z,987.54
2018-08-07T10:32:45.196Z,987.50
2018-08-07T10:33:45.391Z,987.52
2018-08-07T10:34:45.583Z,987.52
2018-08-07T10:35:45.789Z,987.47
2018-08-07T10:36:45.983Z,987.45
2018-08-07T10:37:46.168Z,987.44
2018-08-07T10:38:46.366Z,987.45
2018-08-07T10:39:46.555Z,987.41
2018-08-07T10:40:46.807Z,987.45
2018-08-07T10:41:46.949Z,987.47
2018-08-07T10:42:47.154Z,987.45
2018-08-07T10:43:47.510Z,987.46
2018-08-07T10:44:47.515Z,987.54
2018-08-07T10:45:47.701Z,987.51
2018-08-07T10:46:47.879Z,987.47
2018-08-07T10:47:48.154Z,987.43
2018-08-07T10:48:48.256Z,987.34
2018-08-07T10:49:48.473Z,987.38
2018-08-07T10:50:48.757Z,987.37
2018-08-07T10:51:48.796Z,987.38
2018-08-07T10:52:48.970Z,987.42
2018-08-07T10:53:49.138Z,987.47
2018-08-07T10:54:49.327Z,987.38
2018-08-07T10:55:49.519Z,987.33
2018-08-07T10:56:49.720Z,987.33
2018-08-07T10:57:49.888Z,987.28
2018-08-07T10:58:50.083Z,987.25
2018-08-07T10:59:50.294Z,987.29
2018-08-07T11:00:50.495Z,987.26
2018-08-07T11:01:50.685Z,987.21
2018-08-07T11:02:50.872Z,987.16
2018-08-07T11:03:51.097Z,987.18
2018-08-07T11:04:51.263Z,987.19
2018-08-07T11:05:51.496Z,987.25
2018-08-07T11:06:51.802Z,987.24
2018-08-07T11:07:51.882Z,987.22
2018-08-07T11:08:52.065Z,987.22
2018-08-07T11:09:52.253Z,987.18
2018-08-07T11:10:52.437Z,987.17
2018-08-07T11:11:52.642Z,987.13
2018-08-07T11:12:52.826Z,987.15
2018-08-07T11:13:53.009Z,987.08
2018-08-07T11:14:53.203Z,987.08
2018-08-07T11:15:53.392Z,987.05
2018-08-07T11:16:53.714Z,987.04
2018-08-07T11:17:53.779Z,987.04
2018-08-07T11:18:54.023Z,986.99
2018-08-07T11:19:54.154Z,987.05
2018-08-07T11:20:54.357Z,987.03
2018-08-07T11:21:54.546Z,986.94
2018-08-07T11:22:54.737Z,986.95
2018-08-07T11:23:54.934Z,986.98
2018-08-07T11:24:55.128Z,986.98
2018-08-07T11:25:55.303Z,987.02
2018-08-07T11:26:55.509Z,986.99
2018-08-07T11:27:55.701Z,986.99
2018-08-07T11:28:56.043Z,986.94
2018-08-07T11:30:56.344Z,986.94
2018-08-07T11:31:56.536Z,986.93
2018-08-07T11:32:56.716Z,986.92
2018-08-07T11:33:56.937Z,986.90
2018-08-07T11:34:57.135Z,986.91
2018-08-07T11:35:57.399Z,986.88
2018-08-07T11:36:57.512Z,986.92
2018-08-07T11:37:57.770Z,986.93
2018-08-07T11:38:57.899Z,986.95
2018-08-07T11:39:58.081Z,986.87
2018-08-07T11:40:58.269Z,986.93
2018-08-07T11:41:58.450Z,986.91
2018-08-07T11:42:58.827Z,986.92
2018-08-07T11:43:58.824Z,986.87
2018-08-07T11:44:59.054Z,986.85
2018-08-07T11:45:59.288Z,986.83
2018-08-07T11:46:59.420Z,986.80
2018-08-07T11:47:59.712Z,986.82
2018-08-07T11:48:59.804Z,986.85
2018-08-07T11:49:59.987Z,986.87
2018-08-07T11:51:00.178Z,986.89
2018-08-07T11:52:00.371Z,986.86
2018-08-07T11:53:00.597Z,986.87
2018-08-07T11:54:00.721Z,986.87
2018-08-07T11:55:00.901Z,986.88
2018-08-07T11:56:01.099Z,986.86
2018-08-07T11:57:01.262Z,986.92
2018-08-07T11:58:01.465Z,986.86
2018-08-07T11:59:01.636Z,986.86
2018-08-07T12:00:01.822Z,986.78
2018-08-07T12:01:02.017Z,986.80
2018-08-07T12:02:02.199Z,986.78
2018-08-07T12:03:02.398Z,986.74
2018-08-07T12:04:02.593Z,986.75
2018-08-07T12:05:02.776Z,986.81
2018-08-07T12:06:02.967Z,986.79
2018-08-07T12:07:03.147Z,986.77
2018-08-07T12:08:03.372Z,986.77
2018-08-07T12:09:03.538Z,986.73
2018-08-07T12:10:03.725Z,986.69
2018-08-07T12:11:03.901Z,986.65
2018-08-07T12:12:04.168Z,986.66
2018-08-07T12:13:04.274Z,986.65
2018-08-07T12:14:04.439Z,986.67
2018-08-07T12:15:04.629Z,986.69
2018-08-07T12:16:04.804Z,986.70
2018-08-07T12:17:05.005Z,986.67
2018-08-07T12:18:05.210Z,986.59
2018-08-07T12:19:05.429Z,986.62
2018-08-07T12:20:05.574Z,986.63
2018-08-07T12:21:05.761Z,986.66
2018-08-07T12:22:05.958Z,986.65
2018-08-07T12:23:06.150Z,986.61
2018-08-07T12:24:06.345Z,986.59
2018-08-07T12:25:06.513Z,986.56
2018-08-07T12:26:07.024Z,986.49
2018-08-07T12:27:06.891Z,986.47
2018-08-07T12:28:07.074Z,986.43
2018-08-07T12:29:07.256Z,986.50
2018-08-07T12:30:07.454Z,986.46
2018-08-07T12:31:07.632Z,986.46
2018-08-07T12:32:07.825Z,986.53
2018-08-07T12:33:08.003Z,986.45
2018-08-07T12:34:08.196Z,986.48
2018-08-07T12:35:08.400Z,986.46
2018-08-07T12:36:08.568Z,986.46
2018-08-07T12:37:08.819Z,986.43
2018-08-07T12:38:08.927Z,986.48
2018-08-07T12:39:09.138Z,986.46
2018-08-07T12:40:09.296Z,986.52
2018-08-07T12:41:09.541Z,986.51
2018-08-07T12:42:09.818Z,986.55
2018-08-07T12:43:09.874Z,986.46
2018-08-07T12:44:10.087Z,986.47
2018-08-07T12:45:10.277Z,986.45
2018-08-07T12:46:10.461Z,986.42
2018-08-07T12:47:10.643Z,986.37
2018-08-07T12:48:10.807Z,986.37
2018-08-07T12:49:10.995Z,986.39
2018-08-07T12:50:11.175Z,986.35
2018-08-07T12:51:11.363Z,986.42
2018-08-07T12:52:11.577Z,986.48
2018-08-07T12:53:11.796Z,986.48
2018-08-07T12:54:11.945Z,986.31
2018-08-07T12:55:12.129Z,986.33
2018-08-07T12:56:12.311Z,986.26
2018-08-07T12:57:12.543Z,986.28
2018-08-07T12:58:12.688Z,986.33
2018-08-07T12:59:12.877Z,986.31
2018-08-07T13:00:13.088Z,986.36
2018-08-07T13:01:13.323Z,986.37
2018-08-07T13:02:13.472Z,986.35
2018-08-07T13:03:13.654Z,986.41
2018-08-07T13:04:13.844Z,986.38
2018-08-07T13:05:14.018Z,986.37
2018-08-07T13:06:14.237Z,986.38
2018-08-07T13:07:14.539Z,986.33
2018-08-07T13:08:14.573Z,986.32
2018-08-07T13:09:14.773Z,986.35
2018-08-07T13:10:14.947Z,986.37
2018-08-07T13:11:15.135Z,986.33
2018-08-07T13:12:15.323Z,986.27
2018-08-07T13:13:15.521Z,986.24
2018-08-07T13:14:15.720Z,986.22
2018-08-07T13:15:15.902Z,986.22
2018-08-07T13:16:16.075Z,986.21
2018-08-07T13:17:16.315Z,986.18
2018-08-07T13:19:16.635Z,986.16
2018-08-07T13:20:16.815Z,986.15
2018-08-07T13:21:17.014Z,986.13
2018-08-07T13:22:17.204Z,986.07
2018-08-07T13:23:17.361Z,986.16
2018-08-07T13:24:17.546Z,986.11
2018-08-07T13:25:17.739Z,986.15
2018-08-07T13:26:18.095Z,986.10
2018-08-07T13:27:18.133Z,986.09
2018-08-07T13:28:18.293Z,986.06
2018-08-07T13:29:18.473Z,986.10
2018-08-07T13:30:18.649Z,986.13
2018-08-07T13:31:18.941Z,986.07
2018-08-07T13:32:19.035Z,986.07
2018-08-07T13:33:19.215Z,986.04
2018-08-07T13:34:19.405Z,986.05
2018-08-07T13:35:19.597Z,986.05
2018-08-07T13:36:19.876Z,986.10
2018-08-07T13:37:20.112Z,986.09
2018-08-07T13:38:20.189Z,986.10
2018-08-07T13:39:20.360Z,986.03
2018-08-07T13:40:20.557Z,985.99
2018-08-07T13:41:20.736Z,986.00
2018-08-07T13:42:20.947Z,985.99
2018-08-07T13:43:21.126Z,985.99